Time;durP1;ratioP1;P1;durP2;ratioP2;P2;SDS_P1;SDS_P2;PMS_P1;PMS_P2;Temp;Humidity;BMP_temperature;BMP_pressure;BME280_temperature;BME280_humidity;BME280_pressure;Samples;Min_cycle;Max_cycle;Signal;HPM_P1;HPM_P2
2023/01/12 00:02:21;;;;;;;11.77;2.40;;;7.70;99.90;;;;;;5026916;28;20204;-49
2023/01/12 00:04:48;;;;;;;5.00;1.83;;;7.70;99.90;;;;;;5024790;28;20258;-48
2023/01/12 00:07:16;;;;;;;9.33;2.20;;;7.70;99.90;;;;;;5024320;28;20297;-53
2023/01/12 00:09:44;;;;;;;5.93;1.93;;;7.70;99.90;;;;;;5008467;28;21415;-52
2023/01/12 00:12:12;;;;;;;7.07;2.30;;;7.70;99.90;;;;;;5027089;28;20254;-52
2023/01/12 00:14:39;;;;;;;4.90;1.63;;;7.70;99.90;;;;;;5022273;28;20194;-51
2023/01/12 00:17:10;;;;;;;6.53;1.80;;;7.70;99.90;;;;;;5025050;28;20258;-49
2023/01/12 00:19:38;;;;;;;7.00;2.03;;;7.70;99.90;;;;;;5022231;28;20200;-50
2023/01/12 00:22:10;;;;;;;4.67;2.00;;;7.70;99.90;;;;;;5025890;28;20294;-52
2023/01/12 00:24:38;;;;;;;6.93;1.90;;;7.60;99.90;;;;;;5010785;28;20218;-51
2023/01/12 00:27:07;;;;;;;10.03;1.97;;;7.70;99.90;;;;;;5033756;28;20218;-53
2023/01/12 00:29:34;;;;;;;8.60;2.30;;;7.70;99.90;;;;;;5029108;28;20651;-47
2023/01/12 00:32:02;;;;;;;10.40;2.23;;;7.60;99.90;;;;;;5033452;28;20890;-50
2023/01/12 00:34:30;;;;;;;7.10;1.97;;;7.60;99.90;;;;;;5022968;28;20196;-53
2023/01/12 00:37:00;;;;;;;8.33;1.70;;;7.60;99.90;;;;;;5022881;28;20278;-52
2023/01/12 00:39:27;;;;;;;10.07;2.00;;;7.70;99.90;;;;;;5023495;28;20215;-54
2023/01/12 00:47:23;;;;;;;7.13;1.87;;;7.70;99.90;;;;;;5037153;28;20207;-54
2023/01/12 00:49:51;;;;;;;9.53;2.00;;;7.70;99.90;;;;;;5042766;28;20245;-47
2023/01/12 00:52:20;;;;;;;5.43;1.83;;;7.70;99.90;;;;;;5043255;28;20195;-48
2023/01/12 00:54:47;;;;;;;7.63;1.97;;;7.70;99.90;;;;;;5024558;28;20211;-52
2023/01/12 00:57:16;;;;;;;4.83;1.90;;;7.70;99.90;;;;;;5017700;28;20207;-50
2023/01/12 00:59:43;;;;;;;12.50;2.40;;;7.80;99.90;;;;;;5034916;28;20200;-50
2023/01/12 01:02:11;;;;;;;7.70;1.90;;;7.80;99.90;;;;;;5031398;28;20666;-47
2023/01/12 01:04:37;;;;;;;6.57;2.20;;;7.80;99.90;;;;;;5021513;28;20790;-50
2023/01/12 01:07:06;;;;;;;5.70;1.70;;;7.80;99.90;;;;;;5025463;28;20200;-52
2023/01/12 01:09:32;;;;;;;6.40;1.63;;;7.70;99.90;;;;;;5020105;28;20265;-54
2023/01/12 01:11:59;;;;;;;8.60;2.43;;;7.80;99.90;;;;;;5025094;28;20200;-48
2023/01/12 01:14:26;;;;;;;7.10;2.07;;;7.80;99.90;;;;;;5011817;28;20207;-48
2023/01/12 01:16:53;;;;;;;4.63;1.33;;;7.80;99.90;;;;;;5027799;28;20199;-49
2023/01/12 01:19:19;;;;;;;5.07;2.03;;;7.90;99.90;;;;;;5020853;28;20250;-51
2023/01/12 01:21:46;;;;;;;3.77;1.73;;;7.90;99.90;;;;;;5026482;28;20930;-53
2023/01/12 01:24:15;;;;;;;6.97;2.10;;;7.90;99.90;;;;;;5026245;28;20207;-52
2023/01/12 01:26:42;;;;;;;3.57;1.40;;;8.00;99.90;;;;;;5022187;28;20214;-50
2023/01/12 01:29:09;;;;;;;6.47;1.63;;;8.00;99.90;;;;;;5019193;28;20214;-48
2023/01/12 01:31:37;;;;;;;10.67;1.80;;;8.00;99.90;;;;;;5026549;28;20870;-52
2023/01/12 01:34:03;;;;;;;5.57;2.20;;;8.10;99.90;;;;;;5024702;28;20258;-48
2023/01/12 01:36:31;;;;;;;3.67;1.23;;;8.00;99.90;;;;;;5020766;28;20192;-51
2023/01/12 01:38:57;;;;;;;2.37;0.77;;;7.90;99.90;;;;;;5024921;28;20313;-51
2023/01/12 01:41:27;;;;;;;3.13;0.60;;;7.60;99.90;;;;;;5019093;28;20674;-51
2023/01/12 01:43:58;;;;;;;2.20;0.40;;;7.30;99.90;;;;;;5029743;28;20289;-50
2023/01/12 01:46:40;;;;;;;2.77;0.70;;;7.00;99.90;;;;;;5023150;28;20222;-48
2023/01/12 01:49:24;;;;;;;1.33;0.93;;;6.80;99.90;;;;;;5027768;28;20230;-53
2023/01/12 01:51:54;;;;;;;4.07;1.03;;;6.80;99.90;;;;;;5022695;28;20609;-53
2023/01/12 01:54:22;;;;;;;4.57;1.40;;;6.90;99.90;;;;;;5020228;28;20200;-52
2023/01/12 01:56:55;;;;;;;7.50;1.53;;;6.90;99.90;;;;;;5024642;28;21686;-49
2023/01/12 01:59:25;;;;;;;9.37;1.97;;;7.00;99.90;;;;;;5028907;28;20196;-52
2023/01/12 02:01:53;;;;;;;11.60;2.00;;;7.10;99.90;;;;;;5023272;28;20207;-52
2023/01/12 02:04:20;;;;;;;8.97;1.93;;;7.30;99.90;;;;;;5029884;28;20200;-52
2023/01/12 02:06:48;;;;;;;10.23;1.93;;;7.40;99.90;;;;;;5022913;28;20218;-48
2023/01/12 02:09:20;;;;;;;5.03;2.33;;;7.50;99.90;;;;;;5025648;28;20357;-52
2023/01/12 02:17:40;;;;;;;5.57;2.27;;;7.50;99.90;;;;;;5013769;28;20211;-50
2023/01/12 02:20:33;;;;;;;6.77;2.17;;;7.50;99.90;;;;;;5031555;28;20206;-47
2023/01/12 02:23:31;;;;;;;10.37;2.20;;;7.50;99.90;;;;;;5023219;28;20200;-49
2023/01/12 02:26:35;;;;;;;9.27;2.00;;;7.50;99.90;;;;;;5023878;28;20243;-49
2023/01/12 02:29:31;;;;;;;7.37;2.27;;;7.50;99.90;;;;;;5036397;28;20517;-49
2023/01/12 02:32:06;;;;;;;5.00;2.03;;;7.30;99.90;;;;;;5003388;28;20688;-49
2023/01/12 02:34:42;;;;;;;5.87;2.20;;;7.30;99.90;;;;;;5025185;28;20183;-49
2023/01/12 02:37:17;;;;;;;6.87;1.90;;;7.30;99.90;;;;;;5023920;28;20191;-52
2023/01/12 02:39:51;;;;;;;10.90;1.90;;;7.40;99.90;;;;;;5020450;28;20288;-53
2023/01/12 02:42:41;;;;;;;7.70;2.00;;;7.40;99.90;;;;;;5025023;28;20274;-47
2023/01/12 02:45:22;;;;;;;5.00;2.10;;;7.40;99.90;;;;;;5029182;28;20209;-52
2023/01/12 02:47:56;;;;;;;7.17;1.87;;;7.40;99.90;;;;;;5027841;28;20299;-49
2023/01/12 02:50:31;;;;;;;7.70;1.90;;;7.40;99.90;;;;;;5027400;28;20195;-52
2023/01/12 02:53:04;;;;;;;5.73;1.80;;;7.50;99.90;;;;;;5023578;28;20207;-49
2023/01/12 02:55:33;;;;;;;7.07;2.90;;;7.50;99.90;;;;;;5016867;28;20188;-53
2023/01/12 02:58:00;;;;;;;7.03;1.93;;;7.50;99.90;;;;;;5028414;28;20227;-49
2023/01/12 03:00:29;;;;;;;5.80;2.00;;;7.60;99.90;;;;;;5031930;28;20663;-51
2023/01/12 03:02:57;;;;;;;6.73;2.40;;;7.60;99.90;;;;;;5014956;28;20214;-47
2023/01/12 03:05:26;;;;;;;4.63;2.20;;;7.70;99.90;;;;;;5028705;28;20778;-49
2023/01/12 03:07:55;;;;;;;5.60;2.10;;;7.70;99.90;;;;;;5039484;28;20211;-51
2023/01/12 03:10:40;;;;;;;7.10;2.20;;;7.60;99.90;;;;;;5023830;28;20211;-53
2023/01/12 03:13:12;;;;;;;8.63;2.23;;;7.70;99.90;;;;;;5026255;28;20985;-52
2023/01/12 03:15:41;;;;;;;4.87;1.83;;;7.70;99.90;;;;;;5027892;28;20814;-54
2023/01/12 03:18:15;;;;;;;5.83;2.00;;;7.80;99.90;;;;;;5025739;28;20227;-51
2023/01/12 03:20:47;;;;;;;6.47;1.80;;;7.80;99.90;;;;;;5025399;28;20784;-48
2023/01/12 03:23:20;;;;;;;4.47;1.67;;;7.80;99.90;;;;;;5025636;28;20207;-53
2023/01/12 03:25:50;;;;;;;7.13;2.20;;;7.80;99.90;;;;;;5022044;28;20216;-49
2023/01/12 03:28:20;;;;;;;5.43;1.53;;;7.80;99.90;;;;;;5025760;28;20710;-50
2023/01/12 03:30:55;;;;;;;5.87;1.97;;;7.80;99.90;;;;;;5030543;28;20630;-53
2023/01/12 03:33:24;;;;;;;6.00;1.50;;;7.90;99.90;;;;;;5011926;28;20216;-48
2023/01/12 03:35:59;;;;;;;6.37;1.53;;;7.90;99.90;;;;;;5036047;28;20196;-54
2023/01/12 03:38:33;;;;;;;9.10;1.70;;;7.80;99.90;;;;;;5019446;28;20231;-48
2023/01/12 03:41:04;;;;;;;2.60;1.33;;;7.90;99.90;;;;;;5023128;28;20208;-55
2023/01/12 03:43:38;;;;;;;4.67;1.60;;;7.90;99.90;;;;;;5019156;28;20196;-55
2023/01/12 03:46:13;;;;;;;6.70;1.90;;;7.90;99.90;;;;;;5023187;28;20223;-55
2023/01/12 03:48:47;;;;;;;4.60;1.30;;;7.90;99.90;;;;;;5014383;28;20238;-51
2023/01/12 03:51:19;;;;;;;6.33;1.57;;;7.90;99.90;;;;;;5027323;28;20197;-47
2023/01/12 03:53:49;;;;;;;4.40;1.50;;;7.90;99.90;;;;;;5024701;28;20196;-55
2023/01/12 03:56:18;;;;;;;6.00;1.30;;;8.00;99.90;;;;;;5025352;28;20578;-45
2023/01/12 03:58:46;;;;;;;6.30;1.60;;;8.00;99.90;;;;;;5031782;28;20290;-53
2023/01/12 04:01:13;;;;;;;4.23;1.50;;;8.00;99.90;;;;;;5028528;28;20204;-46
2023/01/12 04:03:41;;;;;;;5.40;2.27;;;7.90;99.90;;;;;;5013051;28;20293;-55
2023/01/12 04:06:08;;;;;;;5.00;1.53;;;7.90;99.90;;;;;;5031972;28;20211;-53
2023/01/12 04:08:35;;;;;;;5.33;1.50;;;7.90;99.90;;;;;;5025057;28;20321;-56
2023/01/12 04:12:09;;;;;;;10.60;1.63;;;8.00;99.90;;;;;;5026537;28;20207;-54
2023/01/12 04:13:50;;;;;;;5.07;1.93;;;8.00;99.90;;;;;;5031509;28;20303;-48
2023/01/12 04:16:18;;;;;;;5.27;1.57;;;7.90;99.90;;;;;;5024235;28;20200;-50
2023/01/12 04:18:46;;;;;;;3.93;1.50;;;8.00;99.90;;;;;;5022029;28;20223;-54
2023/01/12 04:23:53;;;;;;;5.33;1.90;;;7.90;99.90;;;;;;5026041;28;20309;-54
2023/01/12 04:26:20;;;;;;;3.83;1.90;;;7.90;99.90;;;;;;5023133;28;20299;-49
2023/01/12 04:28:48;;;;;;;4.53;1.93;;;7.90;99.90;;;;;;5038074;28;20219;-53
2023/01/12 04:31:15;;;;;;;6.43;3.20;;;7.90;99.90;;;;;;5026196;28;20208;-48
2023/01/12 04:33:43;;;;;;;5.07;2.27;;;7.90;99.90;;;;;;5031729;28;20203;-49
2023/01/12 04:36:11;;;;;;;6.30;2.30;;;8.00;99.90;;;;;;5019377;28;20207;-49
2023/01/12 04:38:39;;;;;;;7.40;2.53;;;7.90;99.90;;;;;;5034848;28;20258;-51
2023/01/12 04:41:06;;;;;;;8.30;2.80;;;7.90;99.90;;;;;;5028105;28;20638;-52
2023/01/12 04:43:33;;;;;;;5.43;2.40;;;7.90;99.90;;;;;;5021836;28;20191;-51
2023/01/12 04:46:04;;;;;;;7.90;2.37;;;7.90;99.90;;;;;;5025873;28;20219;-55
2023/01/12 04:48:31;;;;;;;9.97;1.83;;;8.00;99.90;;;;;;5025890;28;20215;-53
2023/01/12 04:50:59;;;;;;;4.63;1.57;;;8.00;99.90;;;;;;5021765;28;20211;-53
2023/01/12 04:53:28;;;;;;;9.27;2.57;;;7.90;99.90;;;;;;5030590;28;20223;-53
2023/01/12 04:55:55;;;;;;;10.23;2.10;;;7.90;99.90;;;;;;5023710;28;20698;-51
2023/01/12 04:58:23;;;;;;;4.13;1.77;;;8.00;99.90;;;;;;5027822;28;20219;-49
2023/01/12 05:00:50;;;;;;;12.10;2.70;;;7.90;99.90;;;;;;5029687;28;20210;-54
2023/01/12 05:03:17;;;;;;;5.73;2.50;;;7.90;99.90;;;;;;5024489;28;20198;-48
2023/01/12 05:05:43;;;;;;;10.80;2.20;;;7.90;99.90;;;;;;5013514;28;24084;-46
2023/01/12 05:11:20;;;;;;;9.73;2.60;;;8.00;99.90;;;;;;5024950;28;20666;-51
2023/01/12 05:13:47;;;;;;;5.73;2.43;;;8.00;99.90;;;;;;5024241;28;20561;-52
2023/01/12 05:16:15;;;;;;;7.87;2.30;;;8.00;99.90;;;;;;5023644;28;20199;-46
2023/01/12 05:18:43;;;;;;;6.47;2.83;;;8.00;99.90;;;;;;5023500;28;20212;-47
2023/01/12 05:21:11;;;;;;;6.93;2.83;;;8.00;99.90;;;;;;5013735;28;20214;-43
2023/01/12 05:23:39;;;;;;;7.10;2.10;;;8.00;99.90;;;;;;5027248;28;20290;-53
2023/01/12 05:26:07;;;;;;;8.00;2.43;;;8.00;99.90;;;;;;5022881;28;20261;-45
2023/01/12 05:28:34;;;;;;;6.23;1.80;;;8.00;99.90;;;;;;5035480;28;20721;-48
2023/01/12 05:31:06;;;;;;;2.80;1.83;;;8.00;99.90;;;;;;5021290;28;22864;-50
2023/01/12 05:33:32;;;;;;;5.70;2.53;;;8.00;99.90;;;;;;5029993;28;20218;-52
2023/01/12 05:36:02;;;;;;;6.53;1.80;;;8.00;99.90;;;;;;5010150;28;20212;-55
2023/01/12 05:38:29;;;;;;;5.97;2.20;;;8.00;99.90;;;;;;5029662;28;20258;-55
2023/01/12 05:41:00;;;;;;;8.10;3.43;;;8.00;99.90;;;;;;5017559;28;20204;-52
2023/01/12 05:46:12;;;;;;;15.77;4.53;;;8.00;99.90;;;;;;5035953;28;20183;-45
2023/01/12 05:48:39;;;;;;;5.53;2.43;;;7.90;99.90;;;;;;5023284;28;20224;-44
2023/01/12 05:51:10;;;;;;;4.17;1.63;;;7.90;99.90;;;;;;5017016;28;20200;-55
2023/01/12 05:53:38;;;;;;;4.03;2.43;;;7.90;99.90;;;;;;5017715;28;20218;-45
2023/01/12 05:56:09;;;;;;;10.30;3.03;;;7.90;99.90;;;;;;5033521;28;20191;-55
2023/01/12 05:58:36;;;;;;;6.83;3.00;;;7.90;99.90;;;;;;5036695;28;20245;-49
2023/01/12 06:01:06;;;;;;;10.83;3.37;;;7.90;99.90;;;;;;5034822;28;20221;-50
2023/01/12 06:03:34;;;;;;;4.23;2.80;;;7.90;99.90;;;;;;5020491;28;20192;-54
2023/01/12 06:06:00;;;;;;;5.67;3.13;;;8.00;99.90;;;;;;5028258;28;20196;-53
2023/01/12 06:08:27;;;;;;;6.17;2.33;;;7.90;99.90;;;;;;5013930;28;20222;-55
2023/01/12 06:10:54;;;;;;;6.40;2.63;;;7.90;99.90;;;;;;5033768;28;20204;-50
2023/01/12 06:16:08;;;;;;;6.13;3.20;;;8.00;99.90;;;;;;5027407;28;20817;-47
2023/01/12 06:18:35;;;;;;;6.07;2.40;;;7.90;99.90;;;;;;5025057;28;20200;-56
2023/01/12 06:21:01;;;;;;;6.30;2.53;;;8.00;99.90;;;;;;5015837;28;20231;-46
2023/01/12 06:23:29;;;;;;;4.80;2.60;;;8.00;99.90;;;;;;5018181;28;20199;-51
2023/01/12 06:25:56;;;;;;;7.63;2.80;;;8.00;99.90;;;;;;5027522;28;20210;-48
2023/01/12 06:28:24;;;;;;;5.07;2.20;;;8.00;99.90;;;;;;5024209;28;20226;-53
2023/01/12 06:31:01;;;;;;;6.33;2.97;;;8.00;99.90;;;;;;5032251;28;20221;-50
2023/01/12 06:33:29;;;;;;;3.27;2.03;;;8.00;99.90;;;;;;5038781;28;20700;-53
2023/01/12 06:35:56;;;;;;;5.17;2.20;;;8.00;99.90;;;;;;5037184;28;20199;-46
2023/01/12 06:38:25;;;;;;;2.40;2.00;;;8.00;99.90;;;;;;5018082;28;20238;-53
2023/01/12 06:40:52;;;;;;;1.93;1.70;;;8.00;99.90;;;;;;5033021;28;20203;-49
2023/01/12 06:43:19;;;;;;;3.30;1.90;;;8.00;99.90;;;;;;5029268;28;20192;-54
2023/01/12 06:45:48;;;;;;;3.83;2.27;;;8.00;99.90;;;;;;5023785;28;20218;-49
2023/01/12 06:48:15;;;;;;;2.87;2.30;;;8.00;99.90;;;;;;5026670;28;20227;-50
2023/01/12 06:50:41;;;;;;;5.73;3.10;;;8.10;99.90;;;;;;5026577;28;20206;-50
2023/01/12 06:53:09;;;;;;;4.73;3.10;;;8.10;99.90;;;;;;5024470;28;20203;-47
2023/01/12 06:55:36;;;;;;;2.67;2.47;;;8.10;99.90;;;;;;5018830;28;20199;-49
2023/01/12 06:58:04;;;;;;;5.27;2.50;;;8.10;99.90;;;;;;5023635;28;20243;-54
2023/01/12 07:00:31;;;;;;;7.40;3.23;;;8.10;99.90;;;;;;5027180;28;20238;-47
2023/01/12 07:03:00;;;;;;;3.57;2.47;;;8.10;99.90;;;;;;5027828;28;20214;-51
2023/01/12 07:05:26;;;;;;;9.97;4.47;;;8.10;99.90;;;;;;5031706;28;20198;-53
2023/01/12 07:08:02;;;;;;;8.27;3.03;;;8.20;99.90;;;;;;5026501;28;20257;-51
2023/01/12 07:10:31;;;;;;;16.90;4.77;;;8.20;99.90;;;;;;5020353;28;20549;-45
2023/01/12 07:12:59;;;;;;;4.87;3.20;;;8.20;99.90;;;;;;5027637;28;20203;-50
2023/01/12 07:15:26;;;;;;;4.17;2.60;;;8.20;99.90;;;;;;5026512;28;20208;-49
2023/01/12 07:17:55;;;;;;;7.33;2.97;;;8.20;99.90;;;;;;5027053;28;20222;-49
2023/01/12 07:20:24;;;;;;;3.20;2.73;;;8.20;99.90;;;;;;5028793;28;20641;-54
2023/01/12 07:22:51;;;;;;;4.43;2.80;;;8.20;99.90;;;;;;5019338;28;20537;-52
2023/01/12 07:25:18;;;;;;;4.43;3.17;;;8.20;99.90;;;;;;5013841;28;20712;-53
2023/01/12 07:27:48;;;;;;;7.37;3.73;;;8.20;99.90;;;;;;5027159;28;20227;-47
2023/01/12 07:30:15;;;;;;;3.00;2.80;;;8.30;99.90;;;;;;5034336;28;20241;-50
2023/01/12 07:33:09;;;;;;;4.90;3.37;;;8.30;99.90;;;;;;5035468;28;20538;-57
2023/01/12 07:35:37;;;;;;;4.40;2.70;;;8.30;99.90;;;;;;5030234;28;20291;-47
2023/01/12 07:38:05;;;;;;;9.27;4.70;;;8.30;99.90;;;;;;5021699;28;20222;-46
2023/01/12 07:40:32;;;;;;;8.60;3.37;;;8.20;99.90;;;;;;5014550;28;22111;-52
2023/01/12 07:43:00;;;;;;;7.30;3.33;;;8.30;99.90;;;;;;5026393;28;20211;-48
2023/01/12 07:45:26;;;;;;;3.80;2.40;;;8.30;99.90;;;;;;5030298;28;21450;-52
2023/01/12 07:47:54;;;;;;;4.00;2.70;;;8.30;99.90;;;;;;5030808;28;20600;-49
2023/01/12 07:50:21;;;;;;;3.17;1.83;;;8.30;99.90;;;;;;5024284;28;20233;-56
2023/01/12 07:52:49;;;;;;;6.60;3.47;;;8.30;99.90;;;;;;5039731;28;20196;-51
2023/01/12 07:55:18;;;;;;;5.43;2.13;;;8.30;99.90;;;;;;5017112;28;20211;-53
2023/01/12 07:57:53;;;;;;;4.03;2.20;;;8.30;99.90;;;;;;5030812;28;20294;-53
2023/01/12 08:00:22;;;;;;;3.13;2.60;;;8.40;99.90;;;;;;5024470;28;20359;-53
2023/01/12 08:02:49;;;;;;;4.67;2.50;;;8.40;99.90;;;;;;5043151;28;20302;-53
2023/01/12 08:05:17;;;;;;;4.40;2.90;;;8.40;99.90;;;;;;5023715;28;20850;-55
2023/01/12 08:07:45;;;;;;;5.10;2.23;;;8.40;99.90;;;;;;5026921;28;20231;-55
2023/01/12 08:10:14;;;;;;;6.50;3.37;;;8.40;99.90;;;;;;5031180;28;20291;-56
2023/01/12 08:12:42;;;;;;;5.53;2.13;;;8.40;99.90;;;;;;5026122;28;20686;-46
2023/01/12 08:15:10;;;;;;;3.57;1.97;;;8.40;99.90;;;;;;5039759;28;20673;-49
2023/01/12 08:17:44;;;;;;;4.20;1.93;;;8.40;99.90;;;;;;5022147;28;20266;-47
2023/01/12 08:20:16;;;;;;;2.27;1.60;;;8.30;99.90;;;;;;5031545;28;20200;-49
2023/01/12 08:22:47;;;;;;;3.57;1.60;;;8.30;99.90;;;;;;5028526;28;20196;-52
2023/01/12 08:25:19;;;;;;;3.90;1.10;;;8.30;99.90;;;;;;5031453;28;20439;-51
2023/01/12 08:27:51;;;;;;;1.77;0.87;;;8.30;99.90;;;;;;5019513;28;20214;-52
2023/01/12 08:30:21;;;;;;;6.67;1.60;;;8.30;99.90;;;;;;5031418;28;20207;-53
2023/01/12 08:32:48;;;;;;;1.83;1.23;;;8.30;99.90;;;;;;5026084;28;20200;-53
2023/01/12 08:35:20;;;;;;;1.37;0.80;;;8.30;99.90;;;;;;5026997;28;20200;-53
2023/01/12 08:37:47;;;;;;;3.87;1.60;;;8.30;99.90;;;;;;5022568;28;20223;-43
2023/01/12 08:40:15;;;;;;;4.93;1.60;;;8.20;99.90;;;;;;5025288;28;20253;-48
2023/01/12 08:42:43;;;;;;;3.53;1.20;;;8.20;99.90;;;;;;5016655;28;20215;-55
2023/01/12 08:45:10;;;;;;;2.37;0.80;;;8.30;99.90;;;;;;5032680;28;20814;-48
2023/01/12 08:47:39;;;;;;;2.90;0.90;;;8.20;99.90;;;;;;5031942;28;20220;-58
2023/01/12 08:50:07;;;;;;;1.50;1.13;;;8.30;99.90;;;;;;5030020;28;20204;-48
2023/01/12 08:52:35;;;;;;;5.50;1.60;;;8.20;99.90;;;;;;5025371;28;20196;-56
2023/01/12 08:55:01;;;;;;;2.13;1.10;;;8.20;99.90;;;;;;5023413;28;20627;-45
2023/01/12 08:57:29;;;;;;;2.67;1.07;;;8.20;99.90;;;;;;5012501;28;20251;-57
2023/01/12 08:59:56;;;;;;;1.83;1.00;;;8.20;99.90;;;;;;5029119;28;21272;-52
2023/01/12 09:02:25;;;;;;;5.07;1.00;;;8.30;99.90;;;;;;5033198;28;20262;-50
2023/01/12 09:04:52;;;;;;;3.50;0.80;;;8.20;99.90;;;;;;5028980;28;20207;-52
2023/01/12 09:07:19;;;;;;;2.50;0.90;;;8.20;99.90;;;;;;5031389;28;20238;-49
2023/01/12 09:09:46;;;;;;;2.50;0.60;;;8.30;99.90;;;;;;5023341;28;20202;-50
2023/01/12 09:12:12;;;;;;;2.30;0.90;;;8.30;99.90;;;;;;5020951;28;20666;-50
2023/01/12 09:14:41;;;;;;;4.67;1.50;;;8.30;99.90;;;;;;5036414;28;20223;-57
2023/01/12 09:17:08;;;;;;;1.90;0.73;;;8.30;99.90;;;;;;5026786;28;20203;-47
2023/01/12 09:19:35;;;;;;;4.10;2.10;;;8.30;99.90;;;;;;5033629;28;20226;-59
2023/01/12 09:22:02;;;;;;;3.67;1.03;;;8.30;99.90;;;;;;5029748;28;20687;-45
2023/01/12 09:24:28;;;;;;;7.17;2.57;;;8.30;99.90;;;;;;5032604;28;20257;-58
2023/01/12 09:26:55;;;;;;;2.40;1.20;;;8.30;99.90;;;;;;5025387;28;20865;-48
2023/01/12 09:29:22;;;;;;;5.40;1.40;;;8.40;99.90;;;;;;5018440;28;20220;-48
2023/01/12 09:31:50;;;;;;;9.83;2.87;;;8.40;99.90;;;;;;5023230;28;20204;-47
2023/01/12 09:34:16;;;;;;;7.57;2.00;;;8.40;99.90;;;;;;5029809;28;20219;-45
2023/01/12 09:36:43;;;;;;;6.90;1.20;;;8.40;99.90;;;;;;5029424;28;20191;-55
2023/01/12 09:39:15;;;;;;;4.03;1.17;;;8.40;99.90;;;;;;5027662;28;20223;-46
2023/01/12 09:47:33;;;;;;;6.80;1.20;;;8.40;99.90;;;;;;5030806;28;20305;-51
2023/01/12 09:50:05;;;;;;;7.80;1.93;;;8.40;99.90;;;;;;5022051;28;20200;-52
2023/01/12 09:52:36;;;;;;;9.20;2.77;;;8.50;99.90;;;;;;5026392;28;20200;-59
2023/01/12 09:55:06;;;;;;;9.47;2.57;;;8.50;99.90;;;;;;5031109;28;20203;-49
2023/01/12 09:57:59;;;;;;;5.53;1.70;;;8.60;99.90;;;;;;5029744;28;20273;-59
2023/01/12 10:00:27;;;;;;;3.83;1.23;;;8.60;99.90;;;;;;4992414;28;20227;-56
2023/01/12 10:03:07;;;;;;;2.00;0.50;;;8.60;99.90;;;;;;5031926;28;20954;-43
2023/01/12 10:05:40;;;;;;;7.37;2.23;;;8.70;99.90;;;;;;5022961;28;20211;-55
2023/01/12 10:08:15;;;;;;;7.80;2.50;;;8.70;99.90;;;;;;5033468;28;20223;-47
2023/01/12 10:10:53;;;;;;;4.90;1.00;;;8.70;99.90;;;;;;5019522;28;20199;-54
2023/01/12 10:14:13;;;;;;;4.20;1.20;;;8.80;99.90;;;;;;5022715;28;20322;-57
2023/01/12 10:16:51;;;;;;;19.00;3.93;;;8.80;99.90;;;;;;5016318;28;20357;-57
2023/01/12 10:19:24;;;;;;;6.43;2.20;;;8.90;99.90;;;;;;5032201;28;20225;-48
2023/01/12 10:21:52;;;;;;;6.63;1.70;;;8.90;99.90;;;;;;5023801;28;20208;-45
2023/01/12 10:24:24;;;;;;;2.70;1.83;;;8.90;99.90;;;;;;5029985;28;20257;-43
2023/01/12 10:26:57;;;;;;;6.23;2.00;;;8.90;99.90;;;;;;5030348;28;20269;-47
2023/01/12 10:29:24;;;;;;;6.43;2.23;;;8.90;99.90;;;;;;5026529;28;20325;-54
2023/01/12 10:31:50;;;;;;;5.37;2.33;;;8.90;99.90;;;;;;5013529;28;20916;-51
2023/01/12 10:34:17;;;;;;;2.67;1.67;;;9.00;99.90;;;;;;5027619;28;20199;-49
2023/01/12 10:36:48;;;;;;;4.00;1.53;;;9.00;99.90;;;;;;5026096;28;20196;-47
2023/01/12 10:39:31;;;;;;;13.30;3.23;;;9.00;99.90;;;;;;5034732;28;20226;-48
2023/01/12 10:45:14;;;;;;;2.83;0.87;;;9.10;99.90;;;;;;5023907;28;20210;-42
2023/01/12 10:47:41;;;;;;;1.97;1.20;;;9.10;99.90;;;;;;5017756;28;20267;-53
2023/01/12 10:50:23;;;;;;;1.13;0.70;;;9.20;99.90;;;;;;5030816;28;20227;-47
2023/01/12 10:52:55;;;;;;;1.17;0.87;;;9.20;99.90;;;;;;5024582;28;20195;-44
2023/01/12 10:55:24;;;;;;;4.77;1.47;;;9.20;99.90;;;;;;5024007;28;20222;-49
2023/01/12 10:57:51;;;;;;;2.67;1.53;;;9.20;99.90;;;;;;5030198;28;20230;-44
2023/01/12 11:00:21;;;;;;;7.70;2.07;;;9.30;99.90;;;;;;5031676;28;20273;-45
2023/01/12 11:02:48;;;;;;;2.80;1.73;;;9.30;99.90;;;;;;5021626;28;20644;-47
2023/01/12 11:05:32;;;;;;;1.53;1.10;;;9.30;99.90;;;;;;5034990;28;20199;-49
2023/01/12 11:08:02;;;;;;;2.33;1.23;;;9.30;99.90;;;;;;5025551;28;20641;-48
2023/01/12 11:10:30;;;;;;;4.67;2.17;;;9.40;99.90;;;;;;5026021;28;20837;-57
2023/01/12 11:12:59;;;;;;;2.10;1.33;;;9.40;99.90;;;;;;5028291;28;20199;-44
2023/01/12 11:15:28;;;;;;;3.63;1.60;;;9.40;99.90;;;;;;5027924;28;20670;-55
2023/01/12 11:18:11;;;;;;;6.97;2.50;;;9.40;99.90;;;;;;5022423;28;20215;-47
2023/01/12 11:20:42;;;;;;;8.53;2.77;;;9.40;99.90;;;;;;5033175;28;20226;-57
2023/01/12 11:23:14;;;;;;;8.70;2.57;;;9.40;99.90;;;;;;5035894;28;20230;-51
2023/01/12 11:25:45;;;;;;;3.30;1.20;;;9.50;99.90;;;;;;5024477;28;20358;-49
2023/01/12 11:28:18;;;;;;;2.17;1.80;;;9.50;99.90;;;;;;5037372;28;20225;-49
2023/01/12 11:30:50;;;;;;;2.83;2.10;;;9.50;99.90;;;;;;5026972;28;20195;-42
2023/01/12 11:33:22;;;;;;;3.33;2.27;;;9.60;99.90;;;;;;5021160;28;20257;-47
2023/01/12 11:35:57;;;;;;;4.17;2.53;;;9.60;99.90;;;;;;5029478;28;20222;-47
2023/01/12 11:38:31;;;;;;;1.03;0.80;;;9.70;99.90;;;;;;5025581;28;20223;-55
2023/01/12 11:40:59;;;;;;;2.30;1.20;;;9.70;99.90;;;;;;5035497;28;20253;-50
2023/01/12 11:43:49;;;;;;;1.67;1.27;;;9.80;99.90;;;;;;5034151;28;20235;-54
2023/01/12 11:46:23;;;;;;;0.90;0.90;;;9.70;99.90;;;;;;5028971;28;20210;-55
2023/01/12 11:48:59;;;;;;;5.13;2.83;;;9.80;99.90;;;;;;5021361;28;20223;-44
2023/01/12 11:51:27;;;;;;;1.83;1.03;;;9.80;99.90;;;;;;5032088;28;20203;-57
2023/01/12 11:53:55;;;;;;;4.17;2.13;;;9.80;99.90;;;;;;5039951;28;20454;-47
2023/01/12 11:56:50;;;;;;;3.07;1.00;;;9.80;99.90;;;;;;5032548;28;20199;-55
2023/01/12 11:59:22;;;;;;;7.10;2.80;;;9.80;99.90;;;;;;5033245;28;20306;-57
2023/01/12 12:01:55;;;;;;;8.10;2.67;;;9.80;99.90;;;;;;5037067;28;20736;-50
2023/01/12 12:04:43;;;;;;;4.67;2.27;;;9.90;99.90;;;;;;5020344;28;20208;-59
2023/01/12 12:07:31;;;;;;;1.63;1.00;;;9.90;99.90;;;;;;5030159;28;20211;-54
2023/01/12 12:10:14;;;;;;;1.13;0.80;;;9.90;99.90;;;;;;5034267;28;20223;-43
2023/01/12 12:13:01;;;;;;;2.90;1.10;;;9.90;99.90;;;;;;5027948;28;20211;-43
2023/01/12 12:15:38;;;;;;;3.73;2.00;;;9.90;99.90;;;;;;5035098;28;20234;-43
2023/01/12 12:18:16;;;;;;;1.43;0.90;;;9.90;99.90;;;;;;5031176;28;20314;-55
2023/01/12 12:20:55;;;;;;;2.10;0.90;;;9.90;99.90;;;;;;5023176;28;20291;-41
2023/01/12 12:23:30;;;;;;;1.80;0.80;;;10.00;99.90;;;;;;5028301;28;20215;-42
2023/01/12 12:26:10;;;;;;;5.03;1.90;;;10.00;99.90;;;;;;5032134;28;20573;-58
2023/01/12 12:29:00;;;;;;;2.03;1.50;;;10.10;99.90;;;;;;5029299;28;20234;-46
2023/01/12 12:31:44;;;;;;;1.53;1.43;;;10.10;99.90;;;;;;5034255;28;20783;-42
2023/01/12 12:34:42;;;;;;;4.10;1.77;;;10.10;99.90;;;;;;5028777;28;20195;-44
2023/01/12 12:37:15;;;;;;;5.37;2.20;;;10.20;99.90;;;;;;5019415;28;20200;-53
2023/01/12 12:39:51;;;;;;;0.97;0.97;;;10.20;99.90;;;;;;5037280;28;20200;-41
2023/01/12 12:45:30;;;;;;;0.70;0.70;;;10.40;99.90;;;;;;5027624;28;20242;-51
2023/01/12 12:48:05;;;;;;;2.03;1.33;;;10.50;99.90;;;;;;5027909;28;20237;-54
2023/01/12 12:50:38;;;;;;;1.33;0.80;;;10.50;99.90;;;;;;5038632;28;20652;-48
2023/01/12 12:53:16;;;;;;;1.57;1.07;;;10.60;99.90;;;;;;5018176;28;20211;-54
2023/01/12 12:55:44;;;;;;;2.17;1.10;;;10.60;99.90;;;;;;5026594;28;20204;-50
2023/01/12 12:58:30;;;;;;;1.07;0.90;;;10.60;99.90;;;;;;5029270;28;20219;-48
2023/01/12 13:01:42;;;;;;;2.90;1.70;;;10.60;99.90;;;;;;5027593;28;20217;-51
2023/01/12 13:04:11;;;;;;;2.63;1.00;;;10.60;99.90;;;;;;5026578;28;20689;-50
2023/01/12 13:06:49;;;;;;;3.67;2.10;;;10.60;99.90;;;;;;5036105;28;20199;-48
2023/01/12 13:09:40;;;;;;;4.20;2.03;;;10.60;99.90;;;;;;5017443;28;20908;-45
2023/01/12 13:12:31;;;;;;;2.93;1.03;;;10.60;99.90;;;;;;5034192;28;20199;-49
2023/01/12 13:15:20;;;;;;;4.63;1.43;;;10.60;99.90;;;;;;5024295;28;20570;-46
2023/01/12 13:17:49;;;;;;;1.97;1.10;;;10.60;99.90;;;;;;5031108;28;20228;-46
2023/01/12 13:20:51;;;;;;;1.33;1.10;;;10.60;99.90;;;;;;5025898;28;20184;-49
2023/01/12 13:23:45;;;;;;;4.77;1.20;;;10.50;99.90;;;;;;5015373;28;20942;-42
2023/01/12 13:26:40;;;;;;;1.73;0.90;;;10.40;99.90;;;;;;5033449;28;20305;-50
2023/01/12 13:29:43;;;;;;;3.50;1.00;;;10.40;99.90;;;;;;5001032;28;20249;-54
2023/01/12 13:32:40;;;;;;;8.23;1.27;;;10.40;99.90;;;;;;4976662;28;20200;-55
2023/01/12 13:35:52;;;;;;;6.83;1.43;;;10.40;99.90;;;;;;5023166;28;20566;-57
2023/01/12 13:38:28;;;;;;;7.17;1.77;;;10.30;99.90;;;;;;5030773;28;20297;-46
2023/01/12 13:41:02;;;;;;;6.43;1.30;;;10.30;99.90;;;;;;5022732;28;20234;-58
2023/01/12 13:43:33;;;;;;;7.23;1.40;;;10.30;99.90;;;;;;5025644;28;20273;-49
2023/01/12 13:46:02;;;;;;;6.00;1.33;;;10.30;99.90;;;;;;5031872;28;20199;-55
2023/01/12 13:48:34;;;;;;;14.87;2.27;;;10.30;99.90;;;;;;5021853;28;20443;-45
2023/01/12 13:51:07;;;;;;;5.43;2.00;;;10.30;99.90;;;;;;5031597;28;20203;-56
2023/01/12 13:53:33;;;;;;;6.93;1.80;;;10.30;99.90;;;;;;5036216;28;20192;-44
2023/01/12 13:56:02;;;;;;;8.10;1.80;;;10.20;99.90;;;;;;5016662;28;20257;-56